Terminal Aerodrome Forecast
Issued by NWS

Current Version | Previous Version | Graphics & Text | Print | Product List | Glossary On
Versions: 1 2 3 4 5 6 7 8 9 10 11 12 13 14 15 16 17 18 19 20
071
FTUS41 KPBZ 300520
TAFHLG
TAF
KHLG 300520Z 3006/0106 15005KT P6SM BKN100
     FM301000 12005KT 3SM -SHRA BR OVC025
     FM301400 14005KT 3SM -SHRA BR OVC015
     FM302000 19008KT P6SM VCSH BKN025
     FM010300 26010KT P6SM BKN025=

USA.gov is the U.S. government's official web portal to all federal, state and local government web resources and services.